sensor_id;sensor_type;location;lat;lon;timestamp;P1;durP1;ratioP1;P2;durP2;ratioP2
79798;SDS011;69283;48.024;11.090;2023-07-02T00:02:24;3.40;;;1.88;;
79798;SDS011;69283;48.024;11.090;2023-07-02T00:04:49;3.10;;;1.80;;
79798;SDS011;69283;48.024;11.090;2023-07-02T00:07:15;3.58;;;1.95;;
79798;SDS011;69283;48.024;11.090;2023-07-02T00:09:40;3.97;;;2.00;;
79798;SDS011;69283;48.024;11.090;2023-07-02T00:12:06;3.88;;;1.95;;
79798;SDS011;69283;48.024;11.090;2023-07-02T00:14:32;4.68;;;1.98;;
79798;SDS011;69283;48.024;11.090;2023-07-02T00:16:57;3.28;;;1.48;;
79798;SDS011;69283;48.024;11.090;2023-07-02T00:19:22;3.28;;;1.70;;
79798;SDS011;69283;48.024;11.090;2023-07-02T00:21:48;3.42;;;1.98;;
79798;SDS011;69283;48.024;11.090;2023-07-02T00:24:13;2.67;;;1.40;;
79798;SDS011;69283;48.024;11.090;2023-07-02T00:26:41;2.92;;;1.65;;
79798;SDS011;69283;48.024;11.090;2023-07-02T00:29:06;4.10;;;1.65;;
79798;SDS011;69283;48.024;11.090;2023-07-02T00:31:33;2.60;;;1.42;;
79798;SDS011;69283;48.024;11.090;2023-07-02T00:33:58;3.10;;;1.50;;
79798;SDS011;69283;48.024;11.090;2023-07-02T00:36:25;3.25;;;1.65;;
79798;SDS011;69283;48.024;11.090;2023-07-02T00:38:51;2.65;;;1.35;;
79798;SDS011;69283;48.024;11.090;2023-07-02T00:41:17;3.25;;;1.60;;
79798;SDS011;69283;48.024;11.090;2023-07-02T00:43:43;3.17;;;1.52;;
79798;SDS011;69283;48.024;11.090;2023-07-02T00:46:17;3.08;;;1.73;;
79798;SDS011;69283;48.024;11.090;2023-07-02T00:48:54;6.18;;;1.83;;
79798;SDS011;69283;48.024;11.090;2023-07-02T00:51:21;3.78;;;1.80;;
79798;SDS011;69283;48.024;11.090;2023-07-02T00:53:48;4.00;;;1.90;;
79798;SDS011;69283;48.024;11.090;2023-07-02T00:56:16;3.00;;;1.80;;
79798;SDS011;69283;48.024;11.090;2023-07-02T00:58:43;3.25;;;1.60;;
79798;SDS011;69283;48.024;11.090;2023-07-02T01:01:12;3.85;;;1.67;;
79798;SDS011;69283;48.024;11.090;2023-07-02T01:03:39;3.72;;;1.77;;
79798;SDS011;69283;48.024;11.090;2023-07-02T01:06:18;3.17;;;1.80;;
79798;SDS011;69283;48.024;11.090;2023-07-02T01:08:45;2.92;;;1.33;;
79798;SDS011;69283;48.024;11.090;2023-07-02T01:11:12;4.55;;;1.95;;
79798;SDS011;69283;48.024;11.090;2023-07-02T01:13:37;4.85;;;1.92;;
79798;SDS011;69283;48.024;11.090;2023-07-02T01:16:03;3.13;;;1.60;;
79798;SDS011;69283;48.024;11.090;2023-07-02T01:18:29;4.30;;;1.63;;
79798;SDS011;69283;48.024;11.090;2023-07-02T01:20:55;2.88;;;1.70;;
79798;SDS011;69283;48.024;11.090;2023-07-02T01:23:20;4.03;;;1.98;;
79798;SDS011;69283;48.024;11.090;2023-07-02T01:25:46;5.47;;;1.85;;
79798;SDS011;69283;48.024;11.090;2023-07-02T01:28:12;4.18;;;1.20;;
79798;SDS011;69283;48.024;11.090;2023-07-02T01:30:38;3.03;;;1.50;;
79798;SDS011;69283;48.024;11.090;2023-07-02T01:33:04;3.67;;;1.52;;
79798;SDS011;69283;48.024;11.090;2023-07-02T01:35:29;2.53;;;1.43;;
79798;SDS011;69283;48.024;11.090;2023-07-02T01:37:54;3.85;;;1.90;;
79798;SDS011;69283;48.024;11.090;2023-07-02T01:40:19;3.13;;;1.43;;
79798;SDS011;69283;48.024;11.090;2023-07-02T01:42:45;4.78;;;1.63;;
79798;SDS011;69283;48.024;11.090;2023-07-02T01:45:10;3.80;;;1.83;;
79798;SDS011;69283;48.024;11.090;2023-07-02T01:47:35;3.42;;;1.73;;
79798;SDS011;69283;48.024;11.090;2023-07-02T01:50:01;3.90;;;1.42;;
79798;SDS011;69283;48.024;11.090;2023-07-02T01:52:28;3.05;;;1.67;;
79798;SDS011;69283;48.024;11.090;2023-07-02T01:54:57;3.17;;;1.67;;
79798;SDS011;69283;48.024;11.090;2023-07-02T01:57:23;3.33;;;1.60;;
79798;SDS011;69283;48.024;11.090;2023-07-02T01:59:48;4.03;;;1.80;;
79798;SDS011;69283;48.024;11.090;2023-07-02T02:02:13;3.00;;;1.50;;
79798;SDS011;69283;48.024;11.090;2023-07-02T02:04:38;2.93;;;1.40;;
79798;SDS011;69283;48.024;11.090;2023-07-02T02:07:04;4.30;;;1.57;;
79798;SDS011;69283;48.024;11.090;2023-07-02T02:09:29;4.13;;;1.50;;
79798;SDS011;69283;48.024;11.090;2023-07-02T02:11:57;8.18;;;1.83;;
79798;SDS011;69283;48.024;11.090;2023-07-02T02:14:22;2.80;;;1.63;;
79798;SDS011;69283;48.024;11.090;2023-07-02T02:16:47;3.60;;;1.52;;
79798;SDS011;69283;48.024;11.090;2023-07-02T02:19:13;3.13;;;1.73;;
79798;SDS011;69283;48.024;11.090;2023-07-02T02:21:41;4.07;;;1.40;;
79798;SDS011;69283;48.024;11.090;2023-07-02T02:24:07;3.10;;;1.85;;
79798;SDS011;69283;48.024;11.090;2023-07-02T02:26:33;3.75;;;2.35;;
79798;SDS011;69283;48.024;11.090;2023-07-02T02:28:59;3.58;;;1.67;;
79798;SDS011;69283;48.024;11.090;2023-07-02T02:31:24;3.30;;;1.65;;
79798;SDS011;69283;48.024;11.090;2023-07-02T02:33:49;3.70;;;1.63;;
79798;SDS011;69283;48.024;11.090;2023-07-02T02:36:15;5.10;;;1.83;;
79798;SDS011;69283;48.024;11.090;2023-07-02T02:38:40;2.90;;;1.70;;
79798;SDS011;69283;48.024;11.090;2023-07-02T02:41:06;4.20;;;1.47;;
79798;SDS011;69283;48.024;11.090;2023-07-02T02:43:33;4.18;;;1.60;;
79798;SDS011;69283;48.024;11.090;2023-07-02T02:45:58;5.15;;;2.00;;
79798;SDS011;69283;48.024;11.090;2023-07-02T02:48:24;3.10;;;1.57;;
79798;SDS011;69283;48.024;11.090;2023-07-02T02:50:49;3.17;;;1.60;;
79798;SDS011;69283;48.024;11.090;2023-07-02T02:53:14;3.83;;;1.90;;
79798;SDS011;69283;48.024;11.090;2023-07-02T02:55:40;2.87;;;1.50;;
79798;SDS011;69283;48.024;11.090;2023-07-02T02:58:05;3.83;;;1.98;;
79798;SDS011;69283;48.024;11.090;2023-07-02T03:00:30;4.85;;;1.75;;
79798;SDS011;69283;48.024;11.090;2023-07-02T03:02:56;3.70;;;1.80;;
79798;SDS011;69283;48.024;11.090;2023-07-02T03:05:21;2.90;;;1.60;;
79798;SDS011;69283;48.024;11.090;2023-07-02T03:07:47;3.05;;;1.48;;
79798;SDS011;69283;48.024;11.090;2023-07-02T03:10:13;2.95;;;1.50;;
79798;SDS011;69283;48.024;11.090;2023-07-02T03:12:38;5.90;;;2.67;;
79798;SDS011;69283;48.024;11.090;2023-07-02T03:15:03;2.73;;;1.57;;
79798;SDS011;69283;48.024;11.090;2023-07-02T03:17:29;3.00;;;1.60;;
79798;SDS011;69283;48.024;11.090;2023-07-02T03:19:54;3.47;;;1.50;;
79798;SDS011;69283;48.024;11.090;2023-07-02T03:22:19;4.13;;;1.80;;
79798;SDS011;69283;48.024;11.090;2023-07-02T03:24:45;3.77;;;1.70;;
79798;SDS011;69283;48.024;11.090;2023-07-02T03:27:10;4.57;;;2.10;;
79798;SDS011;69283;48.024;11.090;2023-07-02T03:29:35;3.92;;;2.13;;
79798;SDS011;69283;48.024;11.090;2023-07-02T03:32:03;6.18;;;2.28;;
79798;SDS011;69283;48.024;11.090;2023-07-02T03:34:28;6.78;;;2.67;;
79798;SDS011;69283;48.024;11.090;2023-07-02T03:36:54;5.55;;;2.58;;
79798;SDS011;69283;48.024;11.090;2023-07-02T03:39:19;4.97;;;2.50;;
79798;SDS011;69283;48.024;11.090;2023-07-02T03:41:44;6.78;;;2.58;;
79798;SDS011;69283;48.024;11.090;2023-07-02T03:44:10;5.97;;;2.30;;
79798;SDS011;69283;48.024;11.090;2023-07-02T03:46:35;5.05;;;2.42;;
79798;SDS011;69283;48.024;11.090;2023-07-02T03:49:01;4.87;;;2.33;;
79798;SDS011;69283;48.024;11.090;2023-07-02T03:51:28;7.97;;;2.90;;
79798;SDS011;69283;48.024;11.090;2023-07-02T03:53:53;7.20;;;2.55;;
79798;SDS011;69283;48.024;11.090;2023-07-02T03:56:18;7.07;;;2.90;;
79798;SDS011;69283;48.024;11.090;2023-07-02T03:58:44;5.20;;;2.93;;
79798;SDS011;69283;48.024;11.090;2023-07-02T04:01:09;4.10;;;2.17;;
79798;SDS011;69283;48.024;11.090;2023-07-02T04:03:34;5.47;;;2.47;;
79798;SDS011;69283;48.024;11.090;2023-07-02T04:05:59;6.17;;;3.27;;
79798;SDS011;69283;48.024;11.090;2023-07-02T04:08:25;4.87;;;2.20;;
79798;SDS011;69283;48.024;11.090;2023-07-02T04:10:50;6.82;;;2.80;;
79798;SDS011;69283;48.024;11.090;2023-07-02T04:13:16;6.10;;;2.50;;
79798;SDS011;69283;48.024;11.090;2023-07-02T04:15:41;4.05;;;2.50;;
79798;SDS011;69283;48.024;11.090;2023-07-02T04:18:07;5.90;;;2.63;;
79798;SDS011;69283;48.024;11.090;2023-07-02T04:20:32;5.20;;;2.60;;
79798;SDS011;69283;48.024;11.090;2023-07-02T04:22:57;6.00;;;2.53;;
79798;SDS011;69283;48.024;11.090;2023-07-02T04:25:22;5.47;;;2.50;;
79798;SDS011;69283;48.024;11.090;2023-07-02T04:27:48;6.85;;;2.83;;
79798;SDS011;69283;48.024;11.090;2023-07-02T04:30:13;5.75;;;2.45;;
79798;SDS011;69283;48.024;11.090;2023-07-02T04:32:39;6.05;;;2.83;;
79798;SDS011;69283;48.024;11.090;2023-07-02T04:35:05;5.32;;;2.42;;
79798;SDS011;69283;48.024;11.090;2023-07-02T04:37:31;9.10;;;3.15;;
79798;SDS011;69283;48.024;11.090;2023-07-02T04:39:56;5.07;;;2.30;;
79798;SDS011;69283;48.024;11.090;2023-07-02T04:42:22;5.97;;;2.78;;
79798;SDS011;69283;48.024;11.090;2023-07-02T04:44:52;6.47;;;3.28;;
79798;SDS011;69283;48.024;11.090;2023-07-02T04:47:20;3.97;;;2.22;;
79798;SDS011;69283;48.024;11.090;2023-07-02T04:49:45;8.73;;;3.03;;
79798;SDS011;69283;48.024;11.090;2023-07-02T04:52:11;5.45;;;2.45;;
79798;SDS011;69283;48.024;11.090;2023-07-02T04:54:36;6.50;;;2.65;;
79798;SDS011;69283;48.024;11.090;2023-07-02T04:57:02;9.27;;;2.35;;
79798;SDS011;69283;48.024;11.090;2023-07-02T04:59:27;3.58;;;2.22;;
79798;SDS011;69283;48.024;11.090;2023-07-02T05:01:53;6.30;;;2.40;;
79798;SDS011;69283;48.024;11.090;2023-07-02T05:04:18;7.47;;;2.70;;
79798;SDS011;69283;48.024;11.090;2023-07-02T05:06:43;5.70;;;2.90;;
79798;SDS011;69283;48.024;11.090;2023-07-02T05:09:08;4.60;;;2.97;;
79798;SDS011;69283;48.024;11.090;2023-07-02T05:11:34;6.17;;;2.60;;
79798;SDS011;69283;48.024;11.090;2023-07-02T05:13:59;7.97;;;3.00;;
79798;SDS011;69283;48.024;11.090;2023-07-02T05:16:24;8.18;;;2.50;;
79798;SDS011;69283;48.024;11.090;2023-07-02T05:18:50;5.67;;;2.60;;
79798;SDS011;69283;48.024;11.090;2023-07-02T05:21:18;6.80;;;3.30;;
79798;SDS011;69283;48.024;11.090;2023-07-02T05:23:43;6.05;;;2.47;;
79798;SDS011;69283;48.024;11.090;2023-07-02T05:26:09;5.63;;;2.65;;
79798;SDS011;69283;48.024;11.090;2023-07-02T05:28:34;8.73;;;2.70;;
79798;SDS011;69283;48.024;11.090;2023-07-02T05:30:59;5.73;;;2.60;;
79798;SDS011;69283;48.024;11.090;2023-07-02T05:33:25;10.13;;;3.10;;
79798;SDS011;69283;48.024;11.090;2023-07-02T05:35:50;5.82;;;2.88;;
79798;SDS011;69283;48.024;11.090;2023-07-02T05:38:17;5.40;;;2.83;;
79798;SDS011;69283;48.024;11.090;2023-07-02T05:40:43;6.18;;;3.08;;
79798;SDS011;69283;48.024;11.090;2023-07-02T05:43:08;6.15;;;3.03;;
79798;SDS011;69283;48.024;11.090;2023-07-02T05:45:34;6.53;;;3.07;;
79798;SDS011;69283;48.024;11.090;2023-07-02T05:47:59;6.47;;;2.93;;
79798;SDS011;69283;48.024;11.090;2023-07-02T05:50:24;5.70;;;2.70;;
79798;SDS011;69283;48.024;11.090;2023-07-02T05:52:50;7.90;;;3.37;;
79798;SDS011;69283;48.024;11.090;2023-07-02T05:55:15;7.53;;;3.53;;
79798;SDS011;69283;48.024;11.090;2023-07-02T05:57:40;5.40;;;2.90;;
79798;SDS011;69283;48.024;11.090;2023-07-02T06:00:06;7.07;;;3.22;;
79798;SDS011;69283;48.024;11.090;2023-07-02T06:02:31;6.22;;;3.50;;
79798;SDS011;69283;48.024;11.090;2023-07-02T06:04:57;5.07;;;2.47;;
79798;SDS011;69283;48.024;11.090;2023-07-02T06:07:23;4.80;;;3.00;;
79798;SDS011;69283;48.024;11.090;2023-07-02T06:09:49;7.00;;;3.42;;
79798;SDS011;69283;48.024;11.090;2023-07-02T06:12:14;7.75;;;3.03;;
79798;SDS011;69283;48.024;11.090;2023-07-02T06:14:40;6.17;;;3.70;;
79798;SDS011;69283;48.024;11.090;2023-07-02T06:17:05;8.85;;;3.25;;
79798;SDS011;69283;48.024;11.090;2023-07-02T06:19:32;6.50;;;3.80;;
79798;SDS011;69283;48.024;11.090;2023-07-02T06:21:58;7.22;;;2.60;;
79798;SDS011;69283;48.024;11.090;2023-07-02T06:24:23;7.15;;;3.05;;
79798;SDS011;69283;48.024;11.090;2023-07-02T06:26:48;8.15;;;3.10;;
79798;SDS011;69283;48.024;11.090;2023-07-02T06:29:14;4.82;;;2.70;;
79798;SDS011;69283;48.024;11.090;2023-07-02T06:31:39;8.03;;;2.80;;
79798;SDS011;69283;48.024;11.090;2023-07-02T06:34:04;6.37;;;2.87;;
79798;SDS011;69283;48.024;11.090;2023-07-02T06:36:30;6.25;;;2.90;;
79798;SDS011;69283;48.024;11.090;2023-07-02T06:38:55;10.03;;;3.73;;
79798;SDS011;69283;48.024;11.090;2023-07-02T06:41:20;5.90;;;2.80;;
79798;SDS011;69283;48.024;11.090;2023-07-02T06:43:46;5.47;;;2.83;;
79798;SDS011;69283;48.024;11.090;2023-07-02T06:46:11;6.03;;;3.35;;
79798;SDS011;69283;48.024;11.090;2023-07-02T06:48:37;6.68;;;3.10;;
79798;SDS011;69283;48.024;11.090;2023-07-02T06:51:02;7.90;;;3.17;;
79798;SDS011;69283;48.024;11.090;2023-07-02T06:53:27;5.57;;;2.50;;
79798;SDS011;69283;48.024;11.090;2023-07-02T06:55:53;6.13;;;2.80;;
79798;SDS011;69283;48.024;11.090;2023-07-02T06:58:18;5.70;;;2.55;;
79798;SDS011;69283;48.024;11.090;2023-07-02T07:00:44;7.07;;;3.30;;
79798;SDS011;69283;48.024;11.090;2023-07-02T07:03:10;6.18;;;3.38;;
79798;SDS011;69283;48.024;11.090;2023-07-02T07:05:35;8.88;;;3.45;;
79798;SDS011;69283;48.024;11.090;2023-07-02T07:08:00;7.57;;;3.40;;
79798;SDS011;69283;48.024;11.090;2023-07-02T07:10:26;8.00;;;3.55;;
79798;SDS011;69283;48.024;11.090;2023-07-02T07:12:51;8.80;;;4.50;;
79798;SDS011;69283;48.024;11.090;2023-07-02T07:15:17;7.28;;;3.03;;
79798;SDS011;69283;48.024;11.090;2023-07-02T07:17:42;9.77;;;3.90;;
79798;SDS011;69283;48.024;11.090;2023-07-02T07:20:07;9.55;;;4.43;;
79798;SDS011;69283;48.024;11.090;2023-07-02T07:22:33;9.98;;;4.68;;
79798;SDS011;69283;48.024;11.090;2023-07-02T07:24:59;8.57;;;3.80;;
79798;SDS011;69283;48.024;11.090;2023-07-02T07:27:24;7.73;;;3.90;;
79798;SDS011;69283;48.024;11.090;2023-07-02T07:29:49;8.57;;;4.53;;
79798;SDS011;69283;48.024;11.090;2023-07-02T07:32:15;7.63;;;3.83;;
79798;SDS011;69283;48.024;11.090;2023-07-02T07:34:41;8.80;;;3.92;;
79798;SDS011;69283;48.024;11.090;2023-07-02T07:37:07;6.50;;;3.80;;
79798;SDS011;69283;48.024;11.090;2023-07-02T07:39:32;9.57;;;3.77;;
79798;SDS011;69283;48.024;11.090;2023-07-02T07:41:57;16.70;;;6.73;;
79798;SDS011;69283;48.024;11.090;2023-07-02T07:44:22;11.10;;;5.30;;
79798;SDS011;69283;48.024;11.090;2023-07-02T07:46:48;9.68;;;4.57;;
79798;SDS011;69283;48.024;11.090;2023-07-02T07:49:13;3.40;;;1.90;;
79798;SDS011;69283;48.024;11.090;2023-07-02T07:51:38;3.40;;;2.10;;
79798;SDS011;69283;48.024;11.090;2023-07-02T07:54:04;4.00;;;2.30;;
79798;SDS011;69283;48.024;11.090;2023-07-02T07:56:29;11.68;;;5.45;;
79798;SDS011;69283;48.024;11.090;2023-07-02T07:58:54;5.30;;;2.88;;
79798;SDS011;69283;48.024;11.090;2023-07-02T08:01:20;4.40;;;1.93;;
79798;SDS011;69283;48.024;11.090;2023-07-02T08:03:45;6.30;;;1.90;;
79798;SDS011;69283;48.024;11.090;2023-07-02T08:06:11;3.40;;;1.60;;
79798;SDS011;69283;48.024;11.090;2023-07-02T08:08:37;4.28;;;1.90;;
79798;SDS011;69283;48.024;11.090;2023-07-02T08:11:02;7.25;;;1.75;;
79798;SDS011;69283;48.024;11.090;2023-07-02T08:13:27;2.50;;;1.23;;
79798;SDS011;69283;48.024;11.090;2023-07-02T08:15:53;3.28;;;1.70;;
79798;SDS011;69283;48.024;11.090;2023-07-02T08:18:18;3.43;;;1.43;;
79798;SDS011;69283;48.024;11.090;2023-07-02T08:20:43;2.73;;;1.33;;
79798;SDS011;69283;48.024;11.090;2023-07-02T08:23:08;3.65;;;1.40;;
79798;SDS011;69283;48.024;11.090;2023-07-02T08:25:34;2.57;;;1.30;;
79798;SDS011;69283;48.024;11.090;2023-07-02T08:27:59;2.40;;;1.20;;
79798;SDS011;69283;48.024;11.090;2023-07-02T08:30:24;3.78;;;1.92;;
79798;SDS011;69283;48.024;11.090;2023-07-02T08:32:49;4.43;;;1.83;;
79798;SDS011;69283;48.024;11.090;2023-07-02T08:35:15;3.65;;;1.40;;
79798;SDS011;69283;48.024;11.090;2023-07-02T08:37:40;4.97;;;1.35;;
79798;SDS011;69283;48.024;11.090;2023-07-02T08:40:06;2.72;;;1.30;;
79798;SDS011;69283;48.024;11.090;2023-07-02T08:42:41;3.63;;;1.63;;
79798;SDS011;69283;48.024;11.090;2023-07-02T08:45:07;3.80;;;1.83;;
79798;SDS011;69283;48.024;11.090;2023-07-02T08:47:33;2.85;;;1.40;;
79798;SDS011;69283;48.024;11.090;2023-07-02T08:49:58;3.20;;;1.77;;
79798;SDS011;69283;48.024;11.090;2023-07-02T08:52:23;3.38;;;2.03;;
79798;SDS011;69283;48.024;11.090;2023-07-02T08:54:49;2.50;;;1.30;;
79798;SDS011;69283;48.024;11.090;2023-07-02T08:57:14;2.45;;;1.70;;
79798;SDS011;69283;48.024;11.090;2023-07-02T08:59:39;23.57;;;10.83;;
79798;SDS011;69283;48.024;11.090;2023-07-02T09:02:05;41.50;;;19.40;;
79798;SDS011;69283;48.024;11.090;2023-07-02T09:04:31;2.97;;;1.60;;
79798;SDS011;69283;48.024;11.090;2023-07-02T09:07:09;3.70;;;1.60;;
79798;SDS011;69283;48.024;11.090;2023-07-02T09:09:47;5.65;;;3.15;;
79798;SDS011;69283;48.024;11.090;2023-07-02T09:15:05;3.30;;;1.70;;
79798;SDS011;69283;48.024;11.090;2023-07-02T09:17:32;3.05;;;1.80;;
79798;SDS011;69283;48.024;11.090;2023-07-02T09:19:59;3.60;;;1.85;;
79798;SDS011;69283;48.024;11.090;2023-07-02T09:22:26;4.68;;;2.20;;
79798;SDS011;69283;48.024;11.090;2023-07-02T09:24:55;5.20;;;2.22;;
79798;SDS011;69283;48.024;11.090;2023-07-02T09:27:34;5.57;;;2.53;;
79798;SDS011;69283;48.024;11.090;2023-07-02T09:30:07;4.97;;;2.47;;
79798;SDS011;69283;48.024;11.090;2023-07-02T09:32:33;4.53;;;2.42;;
79798;SDS011;69283;48.024;11.090;2023-07-02T09:34:59;6.68;;;2.85;;
79798;SDS011;69283;48.024;11.090;2023-07-02T09:37:24;11.65;;;5.43;;
79798;SDS011;69283;48.024;11.090;2023-07-02T09:39:50;10.50;;;4.30;;
79798;SDS011;69283;48.024;11.090;2023-07-02T09:42:19;6.97;;;3.10;;
79798;SDS011;69283;48.024;11.090;2023-07-02T09:44:46;12.90;;;4.78;;
79798;SDS011;69283;48.024;11.090;2023-07-02T09:47:12;10.00;;;4.00;;
79798;SDS011;69283;48.024;11.090;2023-07-02T09:52:14;7.40;;;3.33;;
79798;SDS011;69283;48.024;11.090;2023-07-02T09:54:41;6.75;;;3.30;;
79798;SDS011;69283;48.024;11.090;2023-07-02T09:57:07;11.50;;;5.15;;
79798;SDS011;69283;48.024;11.090;2023-07-02T09:59:32;17.67;;;5.13;;
79798;SDS011;69283;48.024;11.090;2023-07-02T10:01:57;14.63;;;4.63;;
79798;SDS011;69283;48.024;11.090;2023-07-02T10:04:23;11.75;;;4.95;;
79798;SDS011;69283;48.024;11.090;2023-07-02T10:06:55;17.33;;;6.10;;
79798;SDS011;69283;48.024;11.090;2023-07-02T10:09:33;27.50;;;8.55;;
79798;SDS011;69283;48.024;11.090;2023-07-02T10:14:55;14.07;;;5.18;;
79798;SDS011;69283;48.024;11.090;2023-07-02T10:17:23;14.38;;;5.78;;
79798;SDS011;69283;48.024;11.090;2023-07-02T10:19:58;15.57;;;6.72;;
79798;SDS011;69283;48.024;11.090;2023-07-02T10:22:25;17.20;;;7.43;;
79798;SDS011;69283;48.024;11.090;2023-07-02T10:24:54;16.48;;;7.05;;
79798;SDS011;69283;48.024;11.090;2023-07-02T10:30:00;8.95;;;4.13;;
79798;SDS011;69283;48.024;11.090;2023-07-02T10:32:28;11.35;;;4.15;;
79798;SDS011;69283;48.024;11.090;2023-07-02T10:34:54;10.65;;;4.40;;
79798;SDS011;69283;48.024;11.090;2023-07-02T10:37:19;9.48;;;4.95;;
79798;SDS011;69283;48.024;11.090;2023-07-02T10:39:45;11.82;;;5.05;;
79798;SDS011;69283;48.024;11.090;2023-07-02T10:42:11;32.63;;;14.03;;
79798;SDS011;69283;48.024;11.090;2023-07-02T10:44:46;25.10;;;8.88;;
79798;SDS011;69283;48.024;11.090;2023-07-02T10:47:14;23.17;;;8.93;;
79798;SDS011;69283;48.024;11.090;2023-07-02T10:49:39;25.83;;;8.93;;
79798;SDS011;69283;48.024;11.090;2023-07-02T10:52:05;22.07;;;8.83;;
79798;SDS011;69283;48.024;11.090;2023-07-02T10:54:41;25.55;;;9.90;;
79798;SDS011;69283;48.024;11.090;2023-07-02T10:57:09;25.38;;;9.32;;
79798;SDS011;69283;48.024;11.090;2023-07-02T10:59:35;26.13;;;11.23;;
79798;SDS011;69283;48.024;11.090;2023-07-02T11:02:00;25.65;;;9.98;;
79798;SDS011;69283;48.024;11.090;2023-07-02T11:04:28;23.42;;;10.65;;
79798;SDS011;69283;48.024;11.090;2023-07-02T11:06:58;24.58;;;10.23;;
79798;SDS011;69283;48.024;11.090;2023-07-02T11:09:24;22.15;;;9.70;;
79798;SDS011;69283;48.024;11.090;2023-07-02T11:11:53;23.92;;;9.80;;
79798;SDS011;69283;48.024;11.090;2023-07-02T11:14:30;26.65;;;10.52;;
79798;SDS011;69283;48.024;11.090;2023-07-02T11:16:56;28.95;;;11.50;;
79798;SDS011;69283;48.024;11.090;2023-07-02T11:19:22;28.58;;;11.27;;
79798;SDS011;69283;48.024;11.090;2023-07-02T11:21:50;28.40;;;11.57;;
79798;SDS011;69283;48.024;11.090;2023-07-02T11:24:30;30.48;;;10.65;;
79798;SDS011;69283;48.024;11.090;2023-07-02T11:27:00;21.88;;;9.77;;
79798;SDS011;69283;48.024;11.090;2023-07-02T11:29:27;26.48;;;11.60;;
79798;SDS011;69283;48.024;11.090;2023-07-02T11:31:54;26.58;;;10.63;;
79798;SDS011;69283;48.024;11.090;2023-07-02T11:34:22;26.20;;;10.95;;
79798;SDS011;69283;48.024;11.090;2023-07-02T11:36:48;25.73;;;10.15;;
79798;SDS011;69283;48.024;11.090;2023-07-02T11:39:14;22.88;;;10.55;;
79798;SDS011;69283;48.024;11.090;2023-07-02T11:41:43;27.02;;;10.52;;
79798;SDS011;69283;48.024;11.090;2023-07-02T11:44:09;24.83;;;9.75;;
79798;SDS011;69283;48.024;11.090;2023-07-02T11:46:35;23.83;;;9.82;;
79798;SDS011;69283;48.024;11.090;2023-07-02T11:49:01;24.65;;;9.80;;
79798;SDS011;69283;48.024;11.090;2023-07-02T11:51:29;24.88;;;10.45;;
79798;SDS011;69283;48.024;11.090;2023-07-02T11:53:55;25.27;;;9.70;;
79798;SDS011;69283;48.024;11.090;2023-07-02T11:56:20;24.90;;;10.00;;
79798;SDS011;69283;48.024;11.090;2023-07-02T11:58:45;23.77;;;9.60;;
79798;SDS011;69283;48.024;11.090;2023-07-02T12:01:10;25.58;;;10.35;;
79798;SDS011;69283;48.024;11.090;2023-07-02T12:03:36;24.07;;;10.00;;
79798;SDS011;69283;48.024;11.090;2023-07-02T12:06:01;29.87;;;11.07;;
79798;SDS011;69283;48.024;11.090;2023-07-02T12:08:26;24.83;;;9.50;;
79798;SDS011;69283;48.024;11.090;2023-07-02T12:10:52;22.13;;;9.23;;
79798;SDS011;69283;48.024;11.090;2023-07-02T12:13:17;22.10;;;9.18;;
79798;SDS011;69283;48.024;11.090;2023-07-02T12:15:42;27.63;;;10.07;;
79798;SDS011;69283;48.024;11.090;2023-07-02T12:18:08;24.83;;;10.68;;
79798;SDS011;69283;48.024;11.090;2023-07-02T12:20:34;23.75;;;9.65;;
79798;SDS011;69283;48.024;11.090;2023-07-02T12:22:59;22.10;;;10.05;;
79798;SDS011;69283;48.024;11.090;2023-07-02T12:25:25;24.77;;;9.73;;
79798;SDS011;69283;48.024;11.090;2023-07-02T12:27:50;20.63;;;9.25;;
79798;SDS011;69283;48.024;11.090;2023-07-02T12:30:15;24.90;;;9.73;;
79798;SDS011;69283;48.024;11.090;2023-07-02T12:32:43;24.33;;;9.15;;
79798;SDS011;69283;48.024;11.090;2023-07-02T12:35:09;29.45;;;10.50;;
79798;SDS011;69283;48.024;11.090;2023-07-02T12:37:44;19.83;;;9.23;;
79798;SDS011;69283;48.024;11.090;2023-07-02T12:40:10;19.65;;;8.90;;
79798;SDS011;69283;48.024;11.090;2023-07-02T12:42:36;20.48;;;8.75;;
79798;SDS011;69283;48.024;11.090;2023-07-02T12:45:02;23.23;;;9.25;;
79798;SDS011;69283;48.024;11.090;2023-07-02T12:47:27;26.90;;;9.80;;
79798;SDS011;69283;48.024;11.090;2023-07-02T12:49:53;23.60;;;9.50;;
79798;SDS011;69283;48.024;11.090;2023-07-02T12:52:18;26.08;;;8.98;;
79798;SDS011;69283;48.024;11.090;2023-07-02T12:54:43;26.87;;;9.37;;
79798;SDS011;69283;48.024;11.090;2023-07-02T12:57:08;25.83;;;10.37;;
79798;SDS011;69283;48.024;11.090;2023-07-02T12:59:35;26.80;;;9.60;;
79798;SDS011;69283;48.024;11.090;2023-07-02T13:02:00;24.17;;;9.77;;
79798;SDS011;69283;48.024;11.090;2023-07-02T13:04:25;26.98;;;10.02;;
79798;SDS011;69283;48.024;11.090;2023-07-02T13:06:50;27.07;;;11.30;;
79798;SDS011;69283;48.024;11.090;2023-07-02T13:09:16;29.27;;;11.63;;
79798;SDS011;69283;48.024;11.090;2023-07-02T13:11:41;28.38;;;11.07;;
79798;SDS011;69283;48.024;11.090;2023-07-02T13:14:06;23.30;;;10.37;;
79798;SDS011;69283;48.024;11.090;2023-07-02T13:16:31;26.57;;;11.80;;
79798;SDS011;69283;48.024;11.090;2023-07-02T13:18:57;24.33;;;10.30;;
79798;SDS011;69283;48.024;11.090;2023-07-02T13:21:22;25.05;;;10.07;;
79798;SDS011;69283;48.024;11.090;2023-07-02T13:23:47;28.17;;;11.90;;
79798;SDS011;69283;48.024;11.090;2023-07-02T13:26:13;30.20;;;10.93;;
79798;SDS011;69283;48.024;11.090;2023-07-02T13:28:38;27.17;;;10.95;;
79798;SDS011;69283;48.024;11.090;2023-07-02T13:31:03;32.70;;;11.37;;
79798;SDS011;69283;48.024;11.090;2023-07-02T13:33:29;26.65;;;11.85;;
79798;SDS011;69283;48.024;11.090;2023-07-02T13:35:55;28.52;;;11.93;;
79798;SDS011;69283;48.024;11.090;2023-07-02T13:38:21;26.67;;;11.20;;
79798;SDS011;69283;48.024;11.090;2023-07-02T13:40:46;29.55;;;13.20;;
79798;SDS011;69283;48.024;11.090;2023-07-02T13:43:12;27.40;;;11.85;;
79798;SDS011;69283;48.024;11.090;2023-07-02T13:45:37;31.23;;;12.82;;
79798;SDS011;69283;48.024;11.090;2023-07-02T13:48:03;31.48;;;12.70;;
79798;SDS011;69283;48.024;11.090;2023-07-02T13:50:30;27.83;;;11.65;;
79798;SDS011;69283;48.024;11.090;2023-07-02T13:52:55;30.17;;;11.52;;
79798;SDS011;69283;48.024;11.090;2023-07-02T13:55:20;27.42;;;10.73;;
79798;SDS011;69283;48.024;11.090;2023-07-02T13:57:51;29.38;;;12.57;;
79798;SDS011;69283;48.024;11.090;2023-07-02T14:00:16;27.20;;;11.87;;
79798;SDS011;69283;48.024;11.090;2023-07-02T14:02:42;26.63;;;10.82;;
79798;SDS011;69283;48.024;11.090;2023-07-02T14:05:07;24.95;;;10.10;;
79798;SDS011;69283;48.024;11.090;2023-07-02T14:07:33;24.17;;;10.70;;
79798;SDS011;69283;48.024;11.090;2023-07-02T14:09:58;23.60;;;10.73;;
79798;SDS011;69283;48.024;11.090;2023-07-02T14:12:23;26.95;;;11.95;;
79798;SDS011;69283;48.024;11.090;2023-07-02T14:14:49;28.50;;;11.23;;
79798;SDS011;69283;48.024;11.090;2023-07-02T14:17:14;28.75;;;11.93;;
79798;SDS011;69283;48.024;11.090;2023-07-02T14:19:39;28.13;;;9.63;;
79798;SDS011;69283;48.024;11.090;2023-07-02T14:22:05;27.90;;;10.43;;
79798;SDS011;69283;48.024;11.090;2023-07-02T14:24:30;33.83;;;10.98;;
79798;SDS011;69283;48.024;11.090;2023-07-02T14:26:55;27.95;;;9.95;;
79798;SDS011;69283;48.024;11.090;2023-07-02T14:29:20;29.48;;;10.75;;
79798;SDS011;69283;48.024;11.090;2023-07-02T14:31:46;26.40;;;10.97;;
79798;SDS011;69283;48.024;11.090;2023-07-02T14:34:11;25.13;;;10.00;;